createdAt,value
2023-03-23T15:59:32.893Z,97350.00
2023-03-23T16:02:00.666Z,97356.00
2023-03-23T16:04:31.897Z,97359.00
2023-03-23T16:07:00.116Z,97362.00
2023-03-23T16:09:30.371Z,97356.00
2023-03-23T16:11:58.082Z,97354.00
2023-03-23T16:14:26.094Z,97360.00
2023-03-23T16:16:53.819Z,97356.00
2023-03-23T16:19:24.511Z,97354.00
2023-03-23T16:21:53.727Z,97356.00
2023-03-23T16:24:21.384Z,97365.00
2023-03-23T16:26:49.066Z,97362.00
2023-03-23T16:29:33.681Z,97369.00
2023-03-23T16:32:06.523Z,97365.00
2023-03-23T16:34:35.627Z,97372.00
2023-03-23T16:37:04.775Z,97365.00
2023-03-23T16:39:32.772Z,97369.00
2023-03-23T16:42:00.403Z,97368.00
2023-03-23T16:44:28.089Z,97372.00
2023-03-23T16:46:55.768Z,97379.00
2023-03-23T16:49:23.434Z,97374.00
2023-03-23T16:51:51.081Z,97379.00
2023-03-23T16:54:20.148Z,97379.00
2023-03-23T16:56:49.000Z,97378.00
2023-03-23T16:59:20.511Z,97376.00
2023-03-23T17:01:50.059Z,97370.00
2023-03-23T17:04:17.866Z,97378.00
2023-03-23T17:06:46.729Z,97364.00
2023-03-23T17:09:15.750Z,97358.00
2023-03-23T17:11:45.920Z,97356.00
2023-03-23T17:14:13.760Z,97358.00
2023-03-23T17:16:44.593Z,97354.00
2023-03-23T17:19:15.661Z,97350.00
2023-03-23T17:21:43.798Z,97342.00
2023-03-23T17:24:11.647Z,97350.00
2023-03-23T17:26:39.380Z,97346.00
2023-03-23T17:29:08.486Z,97346.00
2023-03-23T17:31:36.402Z,97345.00
2023-03-23T17:34:04.573Z,97340.00
2023-03-23T17:36:32.243Z,97338.00
2023-03-23T17:39:00.098Z,97328.00
2023-03-23T17:41:27.693Z,97326.00
2023-03-23T17:43:55.338Z,97326.00
2023-03-23T17:46:24.813Z,97323.00
2023-03-23T17:48:52.746Z,97328.00
2023-03-23T17:51:20.527Z,97328.00
2023-03-23T17:53:48.649Z,97333.00
2023-03-23T17:56:16.428Z,97323.00
2023-03-23T17:58:44.352Z,97320.00
2023-03-23T18:01:12.110Z,97317.00
2023-03-23T18:03:41.108Z,97312.00
2023-03-23T18:06:09.905Z,97316.00
2023-03-23T18:08:38.762Z,97311.00
2023-03-23T18:11:07.770Z,97316.00
2023-03-23T18:13:37.020Z,97319.00
2023-03-23T18:16:06.225Z,97318.00
2023-03-23T18:18:34.417Z,97319.00
2023-03-23T18:21:06.341Z,97319.00
2023-03-23T18:23:39.101Z,97319.00
2023-03-23T18:26:13.440Z,97314.00
2023-03-23T18:28:41.650Z,97322.00
2023-03-23T18:31:13.562Z,97314.00
2023-03-23T18:33:44.807Z,97314.00
2023-03-23T18:36:15.655Z,97316.00
2023-03-23T18:38:43.516Z,97309.00
2023-03-23T18:41:11.872Z,97320.00
2023-03-23T18:43:39.782Z,97312.00
2023-03-23T18:46:08.458Z,97308.00
2023-03-23T18:48:37.574Z,97311.00
2023-03-23T18:51:05.611Z,97315.00
2023-03-23T18:53:34.570Z,97319.00
2023-03-23T18:56:08.116Z,97325.00
2023-03-23T18:58:36.225Z,97322.00
2023-03-23T19:01:07.107Z,97328.00
2023-03-23T19:03:35.283Z,97333.00
2023-03-23T19:06:04.551Z,97328.00
2023-03-23T19:08:34.790Z,97334.00
2023-03-23T19:11:05.618Z,97331.00
2023-03-23T19:13:36.881Z,97335.00
2023-03-23T19:16:05.958Z,97327.00
2023-03-23T19:18:33.958Z,97325.00
2023-03-23T19:23:34.205Z,97329.00
2023-03-23T19:26:02.291Z,97326.00
2023-03-23T19:31:04.480Z,97332.00
2023-03-23T19:33:32.187Z,97318.00
2023-03-23T19:36:12.989Z,97316.00
2023-03-23T19:38:42.593Z,97313.00
2023-03-23T19:41:10.250Z,97311.00
2023-03-23T19:43:37.985Z,97315.00
2023-03-23T19:46:06.475Z,97312.00
2023-03-23T19:48:34.787Z,97313.00
2023-03-23T19:51:02.716Z,97317.00
2023-03-23T19:53:30.612Z,97312.00
2023-03-23T19:55:59.676Z,97317.00
2023-03-23T19:58:28.564Z,97315.00
2023-03-23T20:00:57.025Z,97324.00
2023-03-23T20:03:26.077Z,97318.00
2023-03-23T20:06:01.282Z,97321.00
2023-03-23T20:08:29.714Z,97312.00
2023-03-23T20:11:05.563Z,97309.00
2023-03-23T20:13:34.234Z,97304.00
2023-03-23T20:16:02.694Z,97313.00
2023-03-23T20:18:31.523Z,97309.00
2023-03-23T20:21:03.837Z,97309.00
2023-03-23T20:23:32.404Z,97307.00
2023-03-23T20:26:00.469Z,97314.00
2023-03-23T20:28:29.499Z,97313.00
2023-03-23T20:31:16.970Z,97320.00
2023-03-23T20:34:00.104Z,97322.00
2023-03-23T20:36:34.607Z,97307.00
2023-03-23T20:39:06.685Z,97318.00
2023-03-23T20:41:41.901Z,97308.00
2023-03-23T20:44:18.709Z,97312.00
2023-03-23T20:46:48.334Z,97316.00
2023-03-23T20:49:16.787Z,97309.00
2023-03-23T20:51:46.450Z,97318.00
2023-03-23T20:54:15.671Z,97316.00
2023-03-23T20:56:44.648Z,97311.00
2023-03-23T20:59:15.468Z,97318.00
2023-03-23T21:01:44.918Z,97310.00
2023-03-23T21:04:17.883Z,97318.00
2023-03-23T21:06:48.950Z,97316.00
2023-03-23T21:09:17.314Z,97310.00
2023-03-23T21:11:45.780Z,97306.00
2023-03-23T21:14:15.479Z,97303.00
2023-03-23T21:16:44.175Z,97308.00
2023-03-23T21:19:13.247Z,97312.00
2023-03-23T21:21:55.414Z,97309.00
2023-03-23T21:24:26.509Z,97306.00
2023-03-23T21:26:55.319Z,97307.00
2023-03-23T21:29:24.879Z,97300.00
2023-03-23T21:32:05.314Z,97301.00
2023-03-23T21:34:35.969Z,97296.00
2023-03-23T21:37:03.942Z,97299.00
2023-03-23T21:39:31.614Z,97296.00
2023-03-23T21:42:00.099Z,97287.00
2023-03-23T21:44:29.139Z,97290.00
2023-03-23T21:47:03.156Z,97286.00
2023-03-23T21:49:40.870Z,97286.00
2023-03-23T21:52:09.568Z,97292.00
2023-03-23T21:54:37.227Z,97283.00
2023-03-23T21:57:05.213Z,97290.00
2023-03-23T21:59:34.338Z,97286.00
2023-03-23T22:02:02.178Z,97284.00
2023-03-23T22:04:29.938Z,97276.00
2023-03-23T22:06:57.740Z,97284.00
2023-03-23T22:09:26.258Z,97277.00
2023-03-23T22:11:53.919Z,97271.00
2023-03-23T22:14:21.550Z,97265.00
2023-03-23T22:16:50.577Z,97269.00
2023-03-23T22:19:18.542Z,97268.00
2023-03-23T22:21:46.791Z,97265.00
2023-03-23T22:24:14.659Z,97263.00
2023-03-23T22:26:42.459Z,97258.00
2023-03-23T22:29:11.296Z,97261.00
2023-03-23T22:31:40.637Z,97257.00
2023-03-23T22:34:09.921Z,97254.00
2023-03-23T22:36:38.801Z,97245.00
2023-03-23T22:39:08.508Z,97247.00
2023-03-23T22:41:38.075Z,97241.00
2023-03-23T22:44:06.365Z,97228.00
2023-03-23T22:46:34.487Z,97229.00
2023-03-23T22:49:02.239Z,97227.00
2023-03-23T22:51:31.561Z,97227.00
2023-03-23T22:53:59.214Z,97221.00
2023-03-23T22:56:26.894Z,97216.00
2023-03-23T22:58:55.133Z,97212.00
2023-03-23T23:01:24.177Z,97212.00
2023-03-23T23:03:51.995Z,97210.00
2023-03-23T23:06:21.212Z,97207.00
2023-03-23T23:08:52.588Z,97206.00
2023-03-23T23:11:22.628Z,97198.00
2023-03-23T23:13:50.548Z,97195.00
2023-03-23T23:16:19.509Z,97192.00
2023-03-23T23:18:48.531Z,97183.00
2023-03-23T23:21:19.831Z,97194.00
2023-03-23T23:23:48.042Z,97190.00
2023-03-23T23:26:17.993Z,97190.00
2023-03-23T23:28:47.476Z,97181.00
2023-03-23T23:31:22.480Z,97176.00
2023-03-23T23:33:50.836Z,97182.00
2023-03-23T23:36:19.135Z,97178.00
2023-03-23T23:38:46.757Z,97174.00
2023-03-23T23:41:14.483Z,97170.00
2023-03-23T23:43:43.531Z,97172.00
2023-03-23T23:46:11.679Z,97170.00
2023-03-23T23:48:39.371Z,97161.00
2023-03-23T23:51:07.871Z,97167.00
2023-03-23T23:53:35.603Z,97165.00
2023-03-23T23:56:04.341Z,97160.00
2023-03-23T23:58:32.031Z,97158.00
